createdAt,value
2023-04-23T00:01:07.918Z,98
2023-04-23T00:31:08.908Z,98
2023-04-23T01:11:11.050Z,98
2023-04-23T02:01:14.161Z,99
2023-04-23T03:01:17.789Z,99
2023-04-23T04:01:22.190Z,99
2023-04-23T04:11:22.990Z,99
2023-04-23T04:31:24.071Z,99
2023-04-23T06:21:31.452Z,98
2023-04-23T06:41:32.583Z,98
2023-04-23T07:11:34.568Z,98
2023-04-23T07:21:35.127Z,97
2023-04-23T07:31:35.542Z,97
2023-04-23T07:51:36.962Z,94
2023-04-23T08:11:39.130Z,88
2023-04-23T08:31:40.117Z,85
2023-04-23T08:41:40.823Z,82
2023-04-23T08:51:41.461Z,80
2023-04-23T09:21:42.989Z,76
2023-04-23T09:31:44.157Z,74
2023-04-23T09:41:44.713Z,76
2023-04-23T09:51:45.353Z,73
2023-04-23T10:01:45.809Z,73
2023-04-23T10:11:46.756Z,73
2023-04-23T10:21:54.844Z,70
2023-04-23T10:31:47.754Z,69
2023-04-23T11:11:49.417Z,65
2023-04-23T11:21:49.938Z,64
2023-04-23T11:32:01.274Z,63
2023-04-23T11:41:51.183Z,64
2023-04-23T11:51:51.788Z,64
2023-04-23T12:01:51.946Z,64
2023-04-23T12:11:52.311Z,61
2023-04-23T12:21:52.718Z,63
2023-04-23T12:31:53.290Z,74
2023-04-23T12:41:53.406Z,73
2023-04-23T12:51:53.603Z,72
2023-04-23T13:01:54.120Z,71
2023-04-23T13:21:55.938Z,66
2023-04-23T13:42:08.770Z,61
2023-04-23T13:51:56.991Z,62
2023-04-23T14:01:57.600Z,59
2023-04-23T14:11:57.685Z,61
2023-04-23T14:21:58.729Z,57
2023-04-23T14:31:59.235Z,56
2023-04-23T14:41:59.425Z,56
2023-04-23T14:52:00.128Z,56
2023-04-23T15:12:01.692Z,55
2023-04-23T15:32:03.451Z,53
2023-04-23T15:52:03.892Z,55
2023-04-23T16:02:04.911Z,58
2023-04-23T16:12:05.507Z,60
2023-04-23T16:22:06.531Z,65
2023-04-23T16:42:07.109Z,74
2023-04-23T16:52:07.329Z,75
2023-04-23T17:02:08.025Z,79
2023-04-23T17:12:08.214Z,82
2023-04-23T17:22:09.290Z,84
2023-04-23T17:42:10.624Z,89
2023-04-23T18:02:11.654Z,92
2023-04-23T18:12:12.627Z,94
2023-04-23T18:22:13.291Z,95
2023-04-23T18:32:18.230Z,96
2023-04-23T18:42:14.672Z,96
2023-04-23T18:52:15.198Z,97
2023-04-23T19:02:24.831Z,97
2023-04-23T19:12:16.666Z,97
2023-04-23T19:22:17.813Z,97
2023-04-23T19:32:17.998Z,98
2023-04-23T19:42:19.021Z,98
2023-04-23T19:52:19.191Z,98
2023-04-23T20:02:20.248Z,98
2023-04-23T20:12:20.504Z,98
2023-04-23T20:22:20.970Z,98
2023-04-23T20:32:21.506Z,98
2023-04-23T20:52:22.674Z,97
2023-04-23T21:12:24.072Z,95
2023-04-23T21:22:24.528Z,93
2023-04-23T21:32:24.890Z,95
2023-04-23T21:42:25.611Z,95
2023-04-23T21:52:26.353Z,96
2023-04-23T22:02:26.984Z,97
2023-04-23T22:12:27.106Z,98
2023-04-23T22:22:27.504Z,98
2023-04-23T22:32:28.072Z,98
2023-04-23T22:42:28.305Z,97
2023-04-23T22:52:28.841Z,96
2023-04-23T23:02:29.429Z,95
2023-04-23T23:22:30.353Z,93
2023-04-23T23:32:31.435Z,92
2023-04-23T23:42:31.765Z,92
